createdAt,value
2022-08-05T00:07:59.503Z,597
2022-08-05T00:17:25.795Z,630
2022-08-05T00:25:41.630Z,459
2022-08-05T00:34:42.710Z,666
2022-08-05T00:44:30.302Z,720
2022-08-05T00:53:45.563Z,603
2022-08-05T01:02:50.127Z,504
2022-08-05T01:11:33.365Z,663
2022-08-05T01:20:34.528Z,708
2022-08-05T01:29:15.002Z,768
2022-08-05T01:37:36.514Z,804
2022-08-05T01:45:42.781Z,555
2022-08-05T01:54:31.396Z,642
2022-08-05T02:04:11.647Z,636
2022-08-05T02:12:14.997Z,675
2022-08-05T02:20:58.662Z,735
2022-08-05T02:29:17.331Z,804
2022-08-05T02:37:46.455Z,780
2022-08-05T02:45:51.808Z,597
2022-08-05T02:54:34.575Z,609
2022-08-05T03:03:00.548Z,930
2022-08-05T03:17:42.153Z,966
2022-08-05T03:26:30.675Z,750
2022-08-05T03:35:40.618Z,726
2022-08-05T03:44:43.780Z,861
2022-08-05T03:56:36.684Z,876
2022-08-05T04:05:17.541Z,957
2022-08-05T04:13:49.521Z,912
2022-08-05T04:22:43.094Z,894
2022-08-05T04:31:13.829Z,1263
2022-08-05T04:41:00.072Z,894
2022-08-05T04:49:01.775Z,897
2022-08-05T04:58:21.671Z,1209
2022-08-05T05:07:52.795Z,882
2022-08-05T05:15:54.535Z,1074
2022-08-05T05:24:56.609Z,1119
2022-08-05T05:36:17.340Z,996
2022-08-05T05:45:11.837Z,1074
2022-08-05T05:54:00.265Z,969
2022-08-05T06:02:45.942Z,975
2022-08-05T06:11:09.807Z,1119
2022-08-05T06:20:27.946Z,1368
2022-08-05T06:30:38.997Z,1263
2022-08-05T06:41:12.492Z,1035
2022-08-05T06:51:22.783Z,1065
2022-08-05T07:00:29.799Z,1140
2022-08-05T07:08:54.779Z,1410
2022-08-05T07:19:54.026Z,1380
2022-08-05T07:30:21.977Z,1065
2022-08-05T07:40:04.828Z,1068
2022-08-05T07:50:29.032Z,1194
2022-08-05T08:01:27.202Z,1119
2022-08-05T08:10:08.114Z,1044
2022-08-05T08:20:00.526Z,1266
2022-08-05T08:30:50.184Z,1305
2022-08-05T08:39:15.321Z,1248
2022-08-05T08:52:02.460Z,1338
2022-08-05T09:01:18.171Z,1575
2022-08-05T09:09:59.071Z,1440
2022-08-05T09:19:55.378Z,1401
2022-08-05T09:30:30.533Z,1101
2022-08-05T09:40:57.033Z,1014
2022-08-05T09:49:54.971Z,1002
2022-08-05T09:58:36.663Z,1125
2022-08-05T10:07:50.411Z,1395
2022-08-05T10:18:21.274Z,990
2022-08-05T10:28:09.946Z,912
2022-08-05T10:39:05.179Z,1080
2022-08-05T10:49:09.971Z,1239
2022-08-05T10:58:07.586Z,1062
2022-08-05T11:07:32.682Z,954
2022-08-05T11:16:48.067Z,939
2022-08-05T11:28:00.634Z,840
2022-08-05T11:36:44.087Z,915
2022-08-05T11:49:00.234Z,894
2022-08-05T11:57:25.715Z,750
2022-08-05T12:05:53.030Z,891
2022-08-05T12:14:57.717Z,909
2022-08-05T12:24:24.614Z,804
2022-08-05T12:32:27.491Z,666
2022-08-05T12:40:28.782Z,1104
2022-08-05T12:49:05.807Z,762
2022-08-05T13:00:08.568Z,855
2022-08-05T13:10:33.282Z,1224
2022-08-05T13:19:40.559Z,1107
2022-08-05T13:28:58.951Z,1104
2022-08-05T13:38:36.021Z,1206
2022-08-05T13:48:56.826Z,1323
2022-08-05T13:57:48.790Z,924
2022-08-05T14:06:25.545Z,906
2022-08-05T14:16:45.032Z,570
2022-08-05T14:25:28.672Z,693
2022-08-05T14:35:10.603Z,594
2022-08-05T14:44:50.668Z,369
2022-08-05T14:53:30.501Z,225
2022-08-05T15:03:01.429Z,180
2022-08-05T15:13:03.820Z,246
2022-08-05T15:21:33.871Z,159
2022-08-05T15:29:41.739Z,150
2022-08-05T15:40:39.838Z,90
2022-08-05T15:49:59.504Z,156
2022-08-05T15:59:20.140Z,195
2022-08-05T16:07:52.305Z,141
2022-08-05T16:15:53.706Z,45
2022-08-05T16:23:53.480Z,99
2022-08-05T16:33:04.649Z,135
2022-08-05T16:49:52.224Z,111
2022-08-05T16:58:27.632Z,186
2022-08-05T17:06:25.422Z,189
2022-08-05T17:15:19.262Z,294
2022-08-05T17:22:59.340Z,165
2022-08-05T17:31:41.688Z,255
2022-08-05T17:40:31.614Z,309
2022-08-05T17:49:04.786Z,249
2022-08-05T17:56:49.053Z,240
2022-08-05T18:05:27.877Z,270
2022-08-05T18:13:12.427Z,261
2022-08-05T18:21:02.935Z,243
2022-08-05T18:36:59.244Z,270
2022-08-05T18:46:53.047Z,156
2022-08-05T18:55:43.294Z,180
2022-08-05T19:04:29.505Z,372
2022-08-05T19:13:48.537Z,228
2022-08-05T19:22:56.559Z,189
2022-08-05T19:31:26.855Z,240
2022-08-05T19:39:51.180Z,222
2022-08-05T19:49:20.755Z,213
2022-08-05T19:59:21.536Z,411
2022-08-05T20:07:48.484Z,558
2022-08-05T20:15:49.202Z,687
2022-08-05T20:23:39.015Z,654
2022-08-05T20:31:37.723Z,1173
2022-08-05T20:39:51.439Z,717
2022-08-05T20:48:16.119Z,468
2022-08-05T20:57:25.020Z,360
2022-08-05T21:05:38.277Z,540
2022-08-05T21:15:07.065Z,291
2022-08-05T21:23:01.201Z,396
2022-08-05T21:31:07.631Z,423
2022-08-05T21:39:14.224Z,237
2022-08-05T21:48:06.386Z,240
2022-08-05T21:58:48.348Z,267
2022-08-05T22:08:18.635Z,345
2022-08-05T22:17:59.987Z,183
2022-08-05T22:28:04.688Z,291
2022-08-05T22:36:24.326Z,336
2022-08-05T22:45:03.273Z,393
2022-08-05T22:53:51.938Z,252
2022-08-05T23:02:46.441Z,474
2022-08-05T23:11:34.346Z,435
2022-08-05T23:19:23.721Z,369
2022-08-05T23:27:05.955Z,237
2022-08-05T23:35:43.580Z,309
2022-08-05T23:43:37.094Z,255
2022-08-05T23:51:55.183Z,360
